createdAt,value
2023-04-02T00:02:20.836Z,11.11
2023-04-02T00:05:19.747Z,11.02
2023-04-02T00:07:58.088Z,11.48
2023-04-02T00:10:47.263Z,11.56
2023-04-02T00:13:14.000Z,11.83
2023-04-02T00:15:43.417Z,11.83
2023-04-02T00:18:15.891Z,11.57
2023-04-02T00:20:48.609Z,11.34
2023-04-02T00:23:16.306Z,11.19
2023-04-02T00:25:45.697Z,11.13
2023-04-02T00:28:15.405Z,11.10
2023-04-02T00:31:00.701Z,11.07
2023-04-02T00:33:31.726Z,10.91
2023-04-02T00:35:58.892Z,10.86
2023-04-02T00:38:33.029Z,10.82
2023-04-02T00:41:04.263Z,10.88
2023-04-02T00:43:36.124Z,10.82
2023-04-02T00:46:11.074Z,10.72
2023-04-02T00:48:45.716Z,10.57
2023-04-02T00:51:34.779Z,10.42
2023-04-02T00:54:06.692Z,10.40
2023-04-02T00:56:46.253Z,10.44
2023-04-02T00:59:36.936Z,10.44
2023-04-02T01:02:17.551Z,10.39
2023-04-02T01:04:59.958Z,10.09
2023-04-02T01:07:45.668Z,10.10
2023-04-02T01:10:26.723Z,10.11
2023-04-02T01:13:37.167Z,10.04
2023-04-02T01:16:22.282Z,10.00
2023-04-02T01:18:58.361Z,9.98
2023-04-02T01:21:34.356Z,9.86
2023-04-02T01:24:01.282Z,9.82
2023-04-02T01:26:57.931Z,9.73
2023-04-02T01:29:45.580Z,9.69
2023-04-02T01:32:16.605Z,9.67
2023-04-02T01:34:46.490Z,9.95
2023-04-02T01:38:03.228Z,10.09
2023-04-02T01:40:41.085Z,10.52
2023-04-02T01:43:26.047Z,10.91
2023-04-02T01:45:53.241Z,11.25
2023-04-02T01:48:27.452Z,11.00
2023-04-02T01:50:57.602Z,11.13
2023-04-02T01:53:29.202Z,10.85
2023-04-02T01:56:01.346Z,10.54
2023-04-02T01:58:32.013Z,10.45
2023-04-02T02:01:07.301Z,10.26
2023-04-02T02:03:36.724Z,10.07
2023-04-02T02:06:06.577Z,9.71
2023-04-02T02:09:01.380Z,9.58
2023-04-02T02:11:30.690Z,9.55
2023-04-02T02:13:59.075Z,9.65
2023-04-02T02:16:28.256Z,9.55
2023-04-02T02:18:58.273Z,9.52
2023-04-02T02:21:32.181Z,9.55
2023-04-02T02:24:00.431Z,9.63
2023-04-02T02:26:29.837Z,9.76
2023-04-02T02:28:58.969Z,9.79
2023-04-02T02:31:31.210Z,9.85
2023-04-02T02:34:12.448Z,9.96
2023-04-02T02:36:53.984Z,9.92
2023-04-02T02:39:32.374Z,9.92
2023-04-02T02:42:12.025Z,10.12
2023-04-02T02:44:43.754Z,10.19
2023-04-02T02:47:19.786Z,10.12
2023-04-02T02:49:54.097Z,10.17
2023-04-02T02:52:27.718Z,10.15
2023-04-02T02:55:10.884Z,10.17
2023-04-02T02:58:06.987Z,10.10
2023-04-02T03:00:42.501Z,10.03
2023-04-02T03:03:15.049Z,10.09
2023-04-02T03:05:42.633Z,10.11
2023-04-02T03:08:34.584Z,10.02
2023-04-02T03:11:33.763Z,9.95
2023-04-02T03:14:17.101Z,9.85
2023-04-02T03:16:49.077Z,10.10
2023-04-02T03:19:45.367Z,10.12
2023-04-02T03:22:32.332Z,10.05
2023-04-02T03:25:17.859Z,10.04
2023-04-02T03:27:48.260Z,10.17
2023-04-02T03:30:27.815Z,10.15
2023-04-02T03:33:21.681Z,10.05
2023-04-02T03:35:55.239Z,10.12
2023-04-02T03:38:34.976Z,10.26
2023-04-02T03:41:15.503Z,10.24
2023-04-02T03:43:47.943Z,9.79
2023-04-02T03:46:38.384Z,9.88
2023-04-02T03:49:14.710Z,9.86
2023-04-02T03:51:55.559Z,9.79
2023-04-02T03:54:22.852Z,9.55
2023-04-02T03:56:52.515Z,9.44
2023-04-02T03:59:48.861Z,9.22
2023-04-02T04:02:26.802Z,9.34
2023-04-02T04:04:55.927Z,9.07
2023-04-02T04:07:32.661Z,9.01
2023-04-02T04:10:01.628Z,8.78
2023-04-02T04:12:36.302Z,8.61
2023-04-02T04:15:38.439Z,8.66
2023-04-02T04:18:35.060Z,8.34
2023-04-02T04:21:38.702Z,8.18
2023-04-02T04:24:25.973Z,8.41
2023-04-02T04:27:10.285Z,8.56
2023-04-02T04:29:54.250Z,8.44
2023-04-02T04:32:33.861Z,8.49
2023-04-02T04:35:31.378Z,8.52
2023-04-02T04:38:27.666Z,8.48
2023-04-02T04:41:16.873Z,8.76
2023-04-02T04:43:48.261Z,8.86
2023-04-02T04:46:30.557Z,9.06
2023-04-02T04:49:20.006Z,8.90
2023-04-02T04:51:54.610Z,9.05
2023-04-02T04:54:26.629Z,9.04
2023-04-02T04:57:01.247Z,9.14
2023-04-02T04:59:35.504Z,9.13
2023-04-02T05:02:10.641Z,9.16
2023-04-02T05:04:41.171Z,9.17
2023-04-02T05:07:42.939Z,9.31
2023-04-02T05:10:38.131Z,9.61
2023-04-02T05:13:35.530Z,9.61
2023-04-02T05:16:21.745Z,9.61
2023-04-02T05:19:07.888Z,9.84
2023-04-02T05:21:49.665Z,9.92
2023-04-02T05:24:42.888Z,9.90
2023-04-02T05:27:23.906Z,9.92
2023-04-02T05:30:10.753Z,10.05
2023-04-02T05:32:46.070Z,10.05
2023-04-02T05:35:19.171Z,10.03
2023-04-02T05:37:47.053Z,10.00
2023-04-02T05:40:23.566Z,10.22
2023-04-02T05:42:53.238Z,10.18
2023-04-02T05:45:31.857Z,10.26
2023-04-02T05:48:10.047Z,10.43
2023-04-02T05:50:47.959Z,10.62
2023-04-02T05:53:36.592Z,10.78
2023-04-02T05:56:13.172Z,10.89
2023-04-02T05:58:49.153Z,11.05
2023-04-02T06:01:39.215Z,11.38
2023-04-02T06:04:29.880Z,11.31
2023-04-02T06:07:21.753Z,11.51
2023-04-02T06:10:10.271Z,11.55
2023-04-02T06:13:03.867Z,11.66
2023-04-02T06:15:37.253Z,11.79
2023-04-02T06:18:23.591Z,11.81
2023-04-02T06:20:52.415Z,11.89
2023-04-02T06:23:32.894Z,12.07
2023-04-02T06:26:15.711Z,12.10
2023-04-02T06:28:47.884Z,12.24
2023-04-02T06:31:39.113Z,12.52
2023-04-02T06:34:19.281Z,12.82
2023-04-02T06:37:38.294Z,12.82
2023-04-02T06:40:25.946Z,13.03
2023-04-02T06:42:59.824Z,13.07
2023-04-02T06:45:42.175Z,13.19
2023-04-02T06:48:33.372Z,13.27
2023-04-02T06:51:07.286Z,13.34
2023-04-02T06:53:47.657Z,13.62
2023-04-02T06:56:34.472Z,13.62
2023-04-02T06:59:04.568Z,13.98
2023-04-02T07:01:38.468Z,13.94
2023-04-02T07:04:06.350Z,13.89
2023-04-02T07:06:39.307Z,14.13
2023-04-02T07:09:07.028Z,14.29
2023-04-02T07:11:37.564Z,14.14
2023-04-02T07:14:06.484Z,14.23
2023-04-02T07:16:36.805Z,14.30
2023-04-02T07:19:04.357Z,14.34
2023-04-02T07:21:33.954Z,14.51
2023-04-02T07:24:01.225Z,14.80
2023-04-02T07:26:28.544Z,14.88
2023-04-02T07:28:56.253Z,14.90
2023-04-02T07:31:28.114Z,14.96
2023-04-02T07:33:58.096Z,14.83
2023-04-02T07:36:24.960Z,14.99
2023-04-02T07:38:52.180Z,15.00
2023-04-02T07:41:21.050Z,15.04
2023-04-02T07:43:48.396Z,15.07
2023-04-02T07:46:17.531Z,15.05
2023-04-02T07:48:45.568Z,14.93
2023-04-02T07:51:22.002Z,15.14
2023-04-02T07:53:50.461Z,14.98
2023-04-02T07:56:21.138Z,15.19
2023-04-02T07:58:48.301Z,15.29
2023-04-02T08:01:26.390Z,15.29
2023-04-02T08:03:54.918Z,15.34
2023-04-02T08:06:22.866Z,15.37
2023-04-02T08:08:50.329Z,15.51
2023-04-02T08:11:17.267Z,15.59
2023-04-02T08:13:44.208Z,15.55
2023-04-02T08:16:11.470Z,15.79
2023-04-02T08:18:38.687Z,15.88
2023-04-02T08:21:10.311Z,16.23
2023-04-02T08:23:37.644Z,16.60
2023-04-02T08:26:05.412Z,16.94
2023-04-02T08:28:32.405Z,17.02
2023-04-02T08:30:59.331Z,16.95
2023-04-02T08:33:26.350Z,16.85
2023-04-02T08:35:53.329Z,17.03
2023-04-02T08:38:22.103Z,16.99
2023-04-02T08:40:51.679Z,17.08
2023-04-02T08:43:38.891Z,17.08
2023-04-02T08:46:48.721Z,17.34
2023-04-02T08:49:20.062Z,17.06
2023-04-02T08:51:47.768Z,17.40
2023-04-02T08:54:43.754Z,17.59
2023-04-02T08:57:34.468Z,17.89
2023-04-02T09:00:16.779Z,17.93
2023-04-02T09:02:53.983Z,18.01
2023-04-02T09:05:27.099Z,17.99
2023-04-02T09:07:58.524Z,18.18
2023-04-02T09:10:44.976Z,18.39
2023-04-02T09:13:41.504Z,18.67
2023-04-02T09:16:17.381Z,18.55
2023-04-02T09:18:45.561Z,18.35
2023-04-02T09:21:21.960Z,18.35
2023-04-02T09:23:50.254Z,18.21
2023-04-02T09:26:27.311Z,18.43
2023-04-02T09:29:02.296Z,18.41
2023-04-02T09:31:39.609Z,18.70
2023-04-02T09:34:28.799Z,18.71
2023-04-02T09:36:56.917Z,18.49
2023-04-02T09:39:28.849Z,18.29
2023-04-02T09:42:05.491Z,18.14
2023-04-02T09:44:32.997Z,18.00
2023-04-02T09:47:23.151Z,17.96
2023-04-02T09:49:51.304Z,17.94
2023-04-02T09:52:19.950Z,18.13
2023-04-02T09:55:05.401Z,18.03
2023-04-02T09:57:33.509Z,17.96
2023-04-02T10:00:29.861Z,17.93
2023-04-02T10:03:23.560Z,17.91
2023-04-02T10:06:21.870Z,17.83
2023-04-02T10:08:48.777Z,17.77
2023-04-02T10:11:21.793Z,17.71
2023-04-02T10:14:24.101Z,17.96
2023-04-02T10:17:08.667Z,18.09
2023-04-02T10:19:47.822Z,18.04
2023-04-02T10:22:22.774Z,18.21
2023-04-02T10:24:51.263Z,18.07
2023-04-02T10:28:00.572Z,18.26
2023-04-02T10:31:08.657Z,18.44
2023-04-02T10:33:41.294Z,18.44
2023-04-02T10:36:21.405Z,18.57
2023-04-02T10:38:57.208Z,18.49
2023-04-02T10:41:33.978Z,18.51
2023-04-02T10:44:19.932Z,18.49
2023-04-02T10:46:53.356Z,18.65
2023-04-02T10:49:49.607Z,19.20
2023-04-02T10:52:19.523Z,19.74
2023-04-02T10:54:50.822Z,19.68
2023-04-02T10:57:30.603Z,20.22
2023-04-02T11:00:08.409Z,20.07
2023-04-02T11:03:17.522Z,20.05
2023-04-02T11:05:52.318Z,19.95
2023-04-02T11:08:37.384Z,19.95
2023-04-02T11:11:13.014Z,20.13
2023-04-02T11:13:59.987Z,20.23
2023-04-02T11:16:27.759Z,20.63
2023-04-02T11:19:16.553Z,20.33
2023-04-02T11:21:57.980Z,20.47
2023-04-02T11:24:37.301Z,20.64
2023-04-02T11:27:10.468Z,20.58
2023-04-02T11:30:02.862Z,20.23
2023-04-02T11:32:32.646Z,20.65
2023-04-02T11:35:23.959Z,20.92
2023-04-02T11:37:51.695Z,21.40
2023-04-02T11:40:18.445Z,21.63
2023-04-02T11:42:47.592Z,21.29
2023-04-02T11:45:20.920Z,21.43
2023-04-02T11:48:09.056Z,21.27
2023-04-02T11:50:38.941Z,21.22
2023-04-02T11:53:12.198Z,21.45
2023-04-02T11:55:44.597Z,21.16
2023-04-02T11:58:40.369Z,21.48
2023-04-02T12:01:16.320Z,21.33
2023-04-02T12:03:55.602Z,21.24
2023-04-02T12:06:47.488Z,21.18
2023-04-02T12:09:52.636Z,21.18
2023-04-02T12:12:39.522Z,20.86
2023-04-02T12:15:27.887Z,20.93
2023-04-02T12:18:15.656Z,21.32
2023-04-02T12:20:49.242Z,21.49
2023-04-02T12:23:23.251Z,21.85
2023-04-02T12:25:58.620Z,21.98
2023-04-02T12:28:29.059Z,22.16
2023-04-02T12:31:13.523Z,21.89
2023-04-02T12:33:41.666Z,22.16
2023-04-02T12:36:11.877Z,22.19
2023-04-02T12:38:58.228Z,21.62
2023-04-02T12:41:31.267Z,21.69
2023-04-02T12:44:05.078Z,21.34
2023-04-02T12:46:34.790Z,20.81
2023-04-02T12:49:28.354Z,21.28
2023-04-02T12:51:56.315Z,21.08
2023-04-02T12:54:23.911Z,20.77
2023-04-02T12:56:51.127Z,20.64
2023-04-02T12:59:28.882Z,20.16
2023-04-02T13:02:01.051Z,19.99
2023-04-02T13:04:28.678Z,20.40
2023-04-02T13:06:56.640Z,20.56
2023-04-02T13:09:35.256Z,20.40
2023-04-02T13:12:03.090Z,20.32
2023-04-02T13:14:31.065Z,20.09
2023-04-02T13:16:57.978Z,20.00
2023-04-02T13:19:26.743Z,20.03
2023-04-02T13:21:55.411Z,19.81
2023-04-02T13:24:27.873Z,19.92
2023-04-02T13:26:57.816Z,20.58
2023-04-02T13:29:33.803Z,21.02
2023-04-02T13:32:04.424Z,21.38
2023-04-02T13:34:31.544Z,21.59
2023-04-02T13:36:58.782Z,21.75
2023-04-02T13:39:26.155Z,21.85
2023-04-02T13:42:04.527Z,21.99
2023-04-02T13:44:33.919Z,22.15
2023-04-02T13:47:01.374Z,21.85
2023-04-02T13:49:28.829Z,21.53
2023-04-02T13:52:00.909Z,21.67
2023-04-02T13:54:58.520Z,21.92
2023-04-02T14:10:05.265Z,21.99
2023-04-02T14:12:47.329Z,21.83
2023-04-02T14:15:44.891Z,21.70
2023-04-02T14:22:26.431Z,20.95
2023-04-02T14:29:37.677Z,21.47
2023-04-02T14:36:25.331Z,21.02
2023-04-02T14:39:04.581Z,20.86
2023-04-02T14:42:05.944Z,20.69
2023-04-02T14:44:41.118Z,20.51
2023-04-02T14:47:17.648Z,20.51
2023-04-02T14:49:46.255Z,20.72
2023-04-02T14:52:18.983Z,20.83
2023-04-02T14:55:05.364Z,20.83
2023-04-02T14:57:35.381Z,20.73
2023-04-02T15:00:05.211Z,20.81
2023-04-02T15:02:46.493Z,20.84
2023-04-02T15:05:21.312Z,20.76
2023-04-02T15:07:57.843Z,20.74
2023-04-02T15:10:56.234Z,20.47
2023-04-02T15:13:33.540Z,20.25
2023-04-02T15:16:11.362Z,20.36
2023-04-02T15:18:38.537Z,20.68
2023-04-02T15:21:29.702Z,20.90
2023-04-02T15:24:06.224Z,20.81
2023-04-02T15:26:49.400Z,20.59
2023-04-02T15:29:28.313Z,20.19
2023-04-02T15:32:19.412Z,20.13
2023-04-02T15:35:27.673Z,19.86
2023-04-02T15:37:58.265Z,19.82
2023-04-02T15:40:46.670Z,19.61
2023-04-02T15:43:31.719Z,19.45
2023-04-02T15:46:31.198Z,19.35
2023-04-02T15:49:20.110Z,19.00
2023-04-02T15:52:05.831Z,19.14
2023-04-02T15:54:48.058Z,19.08
2023-04-02T15:57:30.032Z,19.11
2023-04-02T16:00:11.943Z,19.21
2023-04-02T16:02:51.111Z,19.51
2023-04-02T16:05:29.631Z,19.52
2023-04-02T16:08:20.836Z,19.50
2023-04-02T16:10:47.973Z,19.33
2023-04-02T16:13:27.277Z,19.15
2023-04-02T16:16:22.830Z,19.21
2023-04-02T16:19:24.210Z,19.07
2023-04-02T16:22:10.081Z,19.05
2023-04-02T16:24:37.117Z,18.85
2023-04-02T16:27:27.258Z,18.77
2023-04-02T16:30:12.911Z,18.76
2023-04-02T16:33:13.508Z,18.38
2023-04-02T16:35:59.062Z,18.38
2023-04-02T16:38:39.128Z,18.07
2023-04-02T16:41:08.678Z,17.97
2023-04-02T16:44:06.853Z,18.07
2023-04-02T16:46:47.737Z,18.03
2023-04-02T16:49:38.822Z,17.91
2023-04-02T16:52:28.799Z,17.64
2023-04-02T16:55:19.799Z,17.60
2023-04-02T16:58:23.196Z,17.79
2023-04-02T17:00:58.928Z,17.67
2023-04-02T17:03:44.129Z,17.50
2023-04-02T17:06:35.483Z,17.43
2023-04-02T17:09:17.470Z,17.54
2023-04-02T17:11:54.692Z,17.40
2023-04-02T17:14:38.946Z,17.17
2023-04-02T17:17:06.030Z,17.11
2023-04-02T17:19:33.546Z,17.11
2023-04-02T17:22:03.605Z,17.07
2023-04-02T17:24:37.155Z,16.88
2023-04-02T17:27:12.902Z,16.97
2023-04-02T17:29:43.451Z,16.98
2023-04-02T17:32:32.679Z,17.02
2023-04-02T17:35:15.848Z,16.79
2023-04-02T17:37:52.481Z,16.69
2023-04-02T17:40:29.476Z,16.61
2023-04-02T17:43:04.980Z,16.51
2023-04-02T17:45:56.784Z,16.46
2023-04-02T17:48:26.561Z,16.55
2023-04-02T17:51:06.203Z,16.62
2023-04-02T17:53:55.180Z,16.60
2023-04-02T17:56:44.036Z,16.40
2023-04-02T17:59:38.202Z,16.34
2023-04-02T18:02:11.543Z,16.49
2023-04-02T18:05:01.138Z,16.48
2023-04-02T18:07:31.155Z,16.31
2023-04-02T18:10:33.269Z,16.15
2023-04-02T18:13:12.108Z,15.84
2023-04-02T18:15:55.709Z,15.71
2023-04-02T18:19:03.755Z,16.24
2023-04-02T18:21:59.139Z,16.40
2023-04-02T18:24:46.630Z,16.18
2023-04-02T18:27:25.414Z,16.21
2023-04-02T18:30:13.621Z,16.22
2023-04-02T18:33:03.421Z,16.24
2023-04-02T18:35:34.677Z,16.41
2023-04-02T18:38:13.858Z,16.29
2023-04-02T18:41:30.814Z,16.30
2023-04-02T18:44:16.465Z,16.27
2023-04-02T18:46:52.170Z,16.06
2023-04-02T18:49:36.981Z,16.18
2023-04-02T18:52:12.622Z,15.88
2023-04-02T18:54:45.428Z,15.68
2023-04-02T18:57:37.316Z,15.60
2023-04-02T19:00:09.346Z,15.38
2023-04-02T19:02:42.314Z,15.43
2023-04-02T19:05:35.921Z,15.28
2023-04-02T19:08:06.432Z,15.28
2023-04-02T19:10:43.565Z,15.36
2023-04-02T19:13:18.937Z,15.29
2023-04-02T19:15:55.971Z,15.28
2023-04-02T19:18:47.829Z,15.40
2023-04-02T19:21:37.723Z,15.51
2023-04-02T19:24:10.565Z,15.68
2023-04-02T19:26:57.159Z,15.39
2023-04-02T19:29:49.676Z,15.40
2023-04-02T19:32:55.585Z,15.18
2023-04-02T19:35:22.551Z,14.93
2023-04-02T19:38:25.566Z,14.83
2023-04-02T19:41:02.242Z,14.72
2023-04-02T19:43:29.765Z,14.60
2023-04-02T19:45:56.960Z,14.44
2023-04-02T19:48:32.567Z,14.60
2023-04-02T19:50:59.556Z,14.40
2023-04-02T19:53:26.443Z,14.21
2023-04-02T19:55:53.414Z,14.29
2023-04-02T19:58:31.408Z,14.12
2023-04-02T20:00:58.345Z,14.48
2023-04-02T20:03:25.469Z,14.31
2023-04-02T20:05:53.269Z,14.07
2023-04-02T20:08:20.734Z,14.04
2023-04-02T20:10:47.740Z,14.17
2023-04-02T20:13:14.597Z,14.06
2023-04-02T20:15:41.829Z,13.92
2023-04-02T20:18:10.583Z,14.08
2023-04-02T20:20:39.454Z,13.73
2023-04-02T20:23:07.572Z,13.59
2023-04-02T20:25:34.390Z,13.35
2023-04-02T20:28:03.890Z,13.28
2023-04-02T20:30:32.681Z,13.30
2023-04-02T20:32:59.977Z,13.28
2023-04-02T20:35:27.460Z,13.37
2023-04-02T20:37:54.340Z,13.39
2023-04-02T20:40:21.445Z,13.46
2023-04-02T20:42:48.230Z,13.56
2023-04-02T20:45:15.170Z,13.47
2023-04-02T20:47:42.243Z,13.72
2023-04-02T20:50:09.644Z,13.72
2023-04-02T20:52:36.470Z,13.60
2023-04-02T20:55:03.852Z,13.84
2023-04-02T20:57:30.873Z,13.87
2023-04-02T20:59:59.032Z,13.89
2023-04-02T21:02:25.908Z,14.00
2023-04-02T21:04:52.975Z,13.95
2023-04-02T21:07:19.825Z,13.96
2023-04-02T21:09:46.626Z,13.84
2023-04-02T21:12:13.517Z,13.74
2023-04-02T21:14:40.658Z,13.90
2023-04-02T21:17:07.941Z,14.00
2023-04-02T21:19:35.724Z,14.04
2023-04-02T21:22:03.559Z,14.01
2023-04-02T21:24:30.449Z,14.03
2023-04-02T21:26:57.289Z,13.96
2023-04-02T21:29:24.159Z,14.04
2023-04-02T21:31:51.093Z,14.04
2023-04-02T21:34:18.033Z,14.11
2023-04-02T21:36:47.162Z,13.99
2023-04-02T21:39:18.353Z,13.99
2023-04-02T21:41:50.581Z,14.02
2023-04-02T21:44:19.866Z,14.04
2023-04-02T21:46:47.468Z,14.03
2023-04-02T21:49:17.263Z,14.04
2023-04-02T21:51:45.767Z,14.11
2023-04-02T21:54:13.895Z,14.06
2023-04-02T21:56:43.165Z,13.86
2023-04-02T21:59:12.113Z,13.89
2023-04-02T22:01:42.708Z,13.73
2023-04-02T22:04:15.604Z,13.72
2023-04-02T22:06:43.701Z,13.69
2023-04-02T22:09:13.456Z,13.68
2023-04-02T22:11:45.910Z,13.58
2023-04-02T22:14:13.385Z,13.61
2023-04-02T22:16:41.726Z,13.57
2023-04-02T22:19:12.002Z,13.57
2023-04-02T22:21:39.639Z,13.53
2023-04-02T22:24:11.224Z,13.51
2023-04-02T22:26:40.340Z,13.37
2023-04-02T22:29:07.753Z,13.27
2023-04-02T22:31:35.408Z,13.28
2023-04-02T22:34:04.448Z,13.11
2023-04-02T22:36:31.871Z,13.10
2023-04-02T22:38:59.897Z,12.94
2023-04-02T22:41:29.549Z,12.86
2023-04-02T22:43:57.410Z,12.85
2023-04-02T22:46:26.855Z,12.73
2023-04-02T22:48:54.837Z,12.64
2023-04-02T22:51:22.545Z,12.88
2023-04-02T22:53:50.394Z,12.82
2023-04-02T22:56:22.683Z,12.53
2023-04-02T22:58:50.074Z,12.50
2023-04-02T23:01:23.090Z,12.37
2023-04-02T23:03:50.235Z,12.37
2023-04-02T23:06:18.398Z,12.27
2023-04-02T23:08:46.625Z,12.29
2023-04-02T23:11:24.821Z,12.26
2023-04-02T23:13:53.806Z,12.39
2023-04-02T23:16:23.015Z,12.33
2023-04-02T23:18:50.674Z,12.24
2023-04-02T23:21:18.912Z,12.19
2023-04-02T23:23:47.154Z,12.23
2023-04-02T23:26:17.668Z,12.18
2023-04-02T23:28:45.216Z,11.93
2023-04-02T23:31:17.518Z,12.08
2023-04-02T23:33:44.497Z,11.83
2023-04-02T23:36:16.925Z,11.96
2023-04-02T23:38:43.812Z,11.93
2023-04-02T23:41:16.359Z,11.91
2023-04-02T23:43:43.807Z,11.67
2023-04-02T23:46:10.890Z,11.73
2023-04-02T23:48:37.964Z,11.82
2023-04-02T23:51:05.850Z,11.77
2023-04-02T23:53:33.755Z,11.67
2023-04-02T23:56:00.930Z,11.71
2023-04-02T23:58:27.910Z,11.77
